YCW weather

Chilliwack Airport
Chilliwack, British Columbia, Canada

Public forecast

Using degrees Celsius for public forecast. Weather courtesy of forecast.io.

METAR (pilot weather report)

Closest report is Abbotsford Airport, 18.3 nm (33.8 km) WSW. Retrieved 2019/05/24 14:00 UTC (40 minutes ago):

CYXX 241400Z 21009KT 10SM FEW007 BKN025 BKN036 BKN080 12/11 A2986 RMK CF1SC5SC1AC1 CF TR SLP112

TAF (pilot weather forecast)

Closest forecast is Abbotsford Airport, 18.3 nm (33.8 km) WSW. Retrieved 2019/05/24 12:42 UTC (2 hours ago):

TAF CYXX 241138Z 2412/2512 23005KT P6SM -SHRA SCT030 BKN080 OVC100 TEMPO 2412/2414 5SM SHRA BR FEW010 BKN020 OVC060 FM241400 23008KT P6SM -RA BKN030 OVC060 TEMPO 2414/2421 5SM SHRA BR OVC020 FM242100 24008KT P6SM BKN030 TEMPO 2421/2512 P6SM -RA BKN020 RMK NXT FCST BY 241800Z